Fuget, Kentucky
Current Conditions -  °F | °C
As of 9:55 AM on Monday 22 Dec 2014 (Local Time) from KSJS Reporting Station
Overcast Overcast  
Wind Chill: 40°   Ceiling: 7500
Heat Index: 43°   Visibility: 10mi
Dew Point: 36°   Wind: 5mph
Humidity: 76%   Direction: 110°ESE
Pressure: 30.04"   Gusts: NA
Location:  37.9467°N, 82.8859°W
Report Text: KSJS 221455Z AUTO 11004KT 10SM SCT041 OVC075 06/02 A3004 RMK AO2 T00620022
Loading
Personal Weather Stations






























Interactive Weather Map New forecast layout! Learn more

10-Day Weather Forecast

Advertisements
Track Severe Weather on mobile